createdAt,value
2018-04-11T00:00:04.706Z,12.7
2018-04-11T00:00:54.189Z,12.7
2018-04-11T00:01:44.556Z,12.7
2018-04-11T00:02:34.438Z,12.7
2018-04-11T00:03:24.376Z,12.7
2018-04-11T00:04:15.311Z,12.8
2018-04-11T00:05:05.343Z,12.8
2018-04-11T00:05:55.141Z,12.8
2018-04-11T00:06:45.501Z,12.8
2018-04-11T00:07:35.559Z,12.8
2018-04-11T00:08:25.316Z,12.8
2018-04-11T00:09:14.835Z,12.8
2018-04-11T00:10:06.055Z,12.8
2018-04-11T00:10:55.791Z,12.8
2018-04-11T00:11:45.864Z,12.7
2018-04-11T00:12:35.367Z,12.7
2018-04-11T00:13:26.002Z,12.6
2018-04-11T00:14:15.776Z,12.6
2018-04-11T00:15:05.546Z,12.7
2018-04-11T00:15:55.315Z,12.7
2018-04-11T00:16:45.953Z,12.7
2018-04-11T00:17:35.770Z,12.8
2018-04-11T00:18:26.364Z,12.8
2018-04-11T00:19:16.476Z,12.8
2018-04-11T00:20:06.211Z,12.8
2018-04-11T00:20:56.546Z,12.8
2018-04-11T00:21:46.039Z,12.8
2018-04-11T00:22:36.117Z,12.9
2018-04-11T00:23:26.800Z,12.8
2018-04-11T00:24:16.772Z,12.8
2018-04-11T00:25:06.862Z,12.8
2018-04-11T00:25:56.628Z,12.8
2018-04-11T00:26:46.703Z,12.8
2018-04-11T00:27:36.764Z,12.8
2018-04-11T00:28:27.109Z,12.8
2018-04-11T00:29:16.889Z,12.8
2018-04-11T00:30:07.237Z,12.8
2018-04-11T00:30:56.756Z,12.8
2018-04-11T00:31:47.373Z,12.8
2018-04-11T00:32:36.863Z,12.8
2018-04-11T00:33:27.195Z,12.8
2018-04-11T00:34:17.543Z,12.8
2018-04-11T00:35:07.624Z,12.9
2018-04-11T00:35:57.384Z,12.9
2018-04-11T00:36:47.751Z,12.9
2018-04-11T00:37:37.795Z,12.9
2018-04-11T00:38:27.617Z,13
2018-04-11T00:39:17.840Z,13
2018-04-11T00:40:08.005Z,13.1
2018-04-11T00:40:58.027Z,13.1
2018-04-11T00:41:48.130Z,13.1
2018-04-11T00:42:38.159Z,13.1
2018-04-11T00:43:28.242Z,13
2018-04-11T00:44:18.025Z,13
2018-04-11T00:45:08.082Z,13
2018-04-11T00:45:58.135Z,13.1
2018-04-11T00:46:47.633Z,13.1
2018-04-11T00:47:38.562Z,13.2
2018-04-11T00:48:28.591Z,13.2
2018-04-11T00:49:18.366Z,13.3
2018-04-11T00:50:08.744Z,13.2
2018-04-11T00:50:58.783Z,13.2
2018-04-11T00:51:48.582Z,13.2
2018-04-11T00:52:38.924Z,13.1
2018-04-11T00:53:28.440Z,13.1
2018-04-11T00:54:19.047Z,13
2018-04-11T00:55:09.099Z,13
2018-04-11T00:55:59.164Z,12.9
2018-04-11T00:56:49.206Z,12.9
2018-04-11T00:57:39.289Z,12.9
2018-04-11T00:58:29.374Z,12.9
2018-04-11T00:59:19.428Z,12.9
2018-04-11T01:00:09.188Z,12.8
2018-04-11T01:00:59.268Z,12.8
2018-04-11T01:01:49.032Z,12.8
2018-04-11T01:02:39.393Z,12.7
2018-04-11T01:03:28.879Z,12.6
2018-04-11T01:04:19.525Z,12.6
2018-04-11T01:05:09.881Z,12.5
2018-04-11T01:05:59.352Z,12.5
2018-04-11T01:06:49.431Z,12.4
2018-04-11T01:07:40.036Z,12.5
2018-04-11T01:08:29.825Z,12.6
2018-04-11T01:09:20.153Z,12.6
2018-04-11T01:10:10.213Z,12.6
2018-04-11T01:11:00.035Z,12.7
2018-04-11T01:11:50.110Z,12.7
2018-04-11T01:12:40.445Z,12.7
2018-04-11T01:13:30.517Z,12.7
2018-04-11T01:14:19.983Z,12.7
2018-04-11T01:15:10.647Z,12.7
2018-04-11T01:16:00.448Z,12.6
2018-04-11T01:16:50.765Z,12.6
2018-04-11T01:17:40.824Z,12.6
2018-04-11T01:18:30.877Z,12.6
2018-04-11T01:19:20.390Z,12.6
2018-04-11T01:20:10.990Z,12.6
2018-04-11T01:21:00.795Z,12.6
2018-04-11T01:21:51.138Z,12.6
2018-04-11T01:22:40.927Z,12.6
2018-04-11T01:23:30.993Z,12.6
2018-04-11T01:24:21.039Z,12.6
2018-04-11T01:25:10.829Z,12.6
2018-04-11T01:26:01.475Z,12.6
2018-04-11T01:26:51.543Z,12.6
2018-04-11T01:27:41.575Z,12.6
2018-04-11T01:28:31.348Z,12.6
2018-04-11T01:29:21.407Z,12.6
2018-04-11T01:30:10.920Z,12.6
2018-04-11T01:31:01.620Z,12.6
2018-04-11T01:31:51.354Z,12.6
2018-04-11T01:32:41.659Z,12.6
2018-04-11T01:33:31.719Z,12.7
2018-04-11T01:34:21.779Z,12.7
2018-04-11T01:35:11.857Z,12.7
2018-04-11T01:36:01.912Z,12.6
2018-04-11T01:36:51.721Z,12.6
2018-04-11T01:37:42.310Z,12.6
2018-04-11T01:38:32.378Z,12.6
2018-04-11T01:39:22.175Z,12.6
2018-04-11T01:40:12.503Z,12.6
2018-04-11T01:41:02.045Z,12.6
2018-04-11T01:41:52.372Z,12.6
2018-04-11T01:42:42.411Z,12.6
2018-04-11T01:43:32.483Z,12.6
2018-04-11T01:44:22.574Z,12.6
2018-04-11T01:45:12.588Z,12.6
2018-04-11T01:46:02.953Z,12.6
2018-04-11T01:46:52.738Z,12.6
2018-04-11T01:47:42.522Z,12.6
2018-04-11T01:48:33.123Z,12.6
2018-04-11T01:49:23.193Z,12.6
2018-04-11T01:50:13.281Z,12.6
2018-04-11T01:51:03.067Z,12.6
2018-04-11T01:51:53.109Z,12.6
2018-04-11T01:52:43.186Z,12.6
2018-04-11T01:53:33.524Z,12.5
2018-04-11T01:54:23.286Z,12.4
2018-04-11T01:55:13.121Z,12.4
2018-04-11T01:56:03.426Z,12.3
2018-04-11T01:56:53.470Z,12.3
2018-04-11T01:57:43.264Z,12.2
2018-04-11T01:58:33.913Z,12.1
2018-04-11T01:59:23.943Z,12.1
2018-04-11T02:00:14.011Z,12
2018-04-11T02:01:04.073Z,12
2018-04-11T02:01:53.576Z,11.9
2018-04-11T02:02:43.970Z,11.9
2018-04-11T02:03:33.982Z,11.9
2018-04-11T02:04:24.349Z,11.8
2018-04-11T02:05:14.120Z,11.8
2018-04-11T02:06:03.891Z,11.8
2018-04-11T02:06:54.510Z,11.8
2018-04-11T02:07:44.302Z,11.9
2018-04-11T02:08:34.722Z,11.8
2018-04-11T02:09:24.439Z,11.8
2018-04-11T02:10:14.482Z,11.8
2018-04-11T02:11:04.636Z,11.8
2018-04-11T02:11:54.329Z,11.8
2018-04-11T02:12:44.686Z,11.8
2018-04-11T02:13:34.471Z,11.8
2018-04-11T02:14:24.803Z,11.8
2018-04-11T02:15:15.122Z,11.8
2018-04-11T02:16:04.655Z,11.8
2018-04-11T02:16:55.280Z,11.8
2018-04-11T02:17:45.096Z,11.8
2018-04-11T02:18:35.090Z,11.8
2018-04-11T02:19:25.540Z,11.8
2018-04-11T02:20:15.529Z,11.8
2018-04-11T02:21:05.024Z,11.8
2018-04-11T02:21:55.636Z,11.8
2018-04-11T02:22:45.443Z,11.8
2018-04-11T02:23:35.760Z,11.8
2018-04-11T02:24:25.819Z,11.9
2018-04-11T02:25:15.611Z,11.9
2018-04-11T02:26:05.691Z,11.9
2018-04-11T02:26:56.029Z,11.9
2018-04-11T02:27:45.228Z,11.9
2018-04-11T02:28:35.867Z,11.8
2018-04-11T02:29:26.237Z,11.8
2018-04-11T02:30:16.271Z,11.8
2018-04-11T02:31:06.040Z,11.8
2018-04-11T02:31:56.141Z,11.8
2018-04-11T02:32:46.457Z,11.8
2018-04-11T02:33:36.236Z,11.8
2018-04-11T02:34:26.636Z,11.8
2018-04-11T02:35:16.375Z,11.9
2018-04-11T02:36:06.737Z,11.8
2018-04-11T02:36:56.790Z,11.8
2018-04-11T02:37:46.287Z,11.8
2018-04-11T02:38:36.662Z,11.8
2018-04-11T02:39:26.695Z,11.8
2018-04-11T02:40:17.028Z,11.8
2018-04-11T02:41:07.126Z,11.8
2018-04-11T02:41:57.163Z,11.8
2018-04-11T02:42:46.949Z,11.8
2018-04-11T02:43:37.256Z,11.8
2018-04-11T02:44:27.075Z,11.8
2018-04-11T02:45:17.392Z,11.9
2018-04-11T02:46:06.605Z,11.9
2018-04-11T02:46:57.243Z,11.9
2018-04-11T02:47:47.303Z,11.9
2018-04-11T02:48:37.055Z,11.8
2018-04-11T02:49:27.701Z,11.8
2018-04-11T02:50:17.761Z,11.8
2018-04-11T02:51:07.843Z,11.8
2018-04-11T02:51:57.590Z,11.7
2018-04-11T02:52:47.982Z,11.7
2018-04-11T02:53:37.192Z,11.7
2018-04-11T02:54:27.567Z,11.7
2018-04-11T02:55:17.860Z,11.6
2018-04-11T02:56:07.965Z,11.6
2018-04-11T02:56:58.279Z,11.6
2018-04-11T02:57:48.320Z,11.6
2018-04-11T02:58:38.403Z,11.6
2018-04-11T02:59:28.446Z,11.6
2018-04-11T03:00:18.239Z,11.6
2018-04-11T03:01:08.295Z,11.6
2018-04-11T03:01:58.640Z,11.6
2018-04-11T03:02:48.699Z,11.5
2018-04-11T03:03:38.777Z,11.5
2018-04-11T03:04:28.544Z,11.5
2018-04-11T03:05:18.593Z,11.4
2018-04-11T03:06:08.974Z,11.4
2018-04-11T03:06:58.731Z,11.3
2018-04-11T03:07:49.069Z,11.3
2018-04-11T03:08:39.152Z,11.3
2018-04-11T03:09:29.467Z,11.3
2018-04-11T03:10:19.271Z,11.4
2018-04-11T03:11:09.354Z,11.4
2018-04-11T03:11:59.117Z,11.4
2018-04-11T03:12:49.177Z,11.5
2018-04-11T03:13:39.544Z,11.4
2018-04-11T03:14:29.577Z,11.4
2018-04-11T03:15:19.652Z,11.4
2018-04-11T03:16:09.703Z,11.4
2018-04-11T03:16:59.187Z,11.4
2018-04-11T03:17:49.526Z,11.4
2018-04-11T03:18:39.906Z,11.4
2018-04-11T03:19:29.385Z,11.5
2018-04-11T03:20:19.155Z,11.6
2018-04-11T03:21:10.080Z,11.4
2018-04-11T03:21:59.885Z,11.4
2018-04-11T03:22:49.642Z,11.4
2018-04-11T03:23:39.974Z,11.4
2018-04-11T03:24:29.576Z,11.4
2018-04-11T03:25:20.522Z,11.4
2018-04-11T03:26:10.150Z,11.3
2018-04-11T03:27:00.531Z,11.3
2018-04-11T03:27:50.309Z,11.3
2018-04-11T03:28:40.332Z,11.1
2018-04-11T03:29:30.689Z,11.1
2018-04-11T03:30:20.495Z,11
2018-04-11T03:31:10.269Z,10.9
2018-04-11T03:32:00.869Z,10.9
2018-04-11T03:32:50.957Z,10.8
2018-04-11T03:33:41.020Z,10.8
2018-04-11T03:34:30.799Z,10.9
2018-04-11T03:35:20.842Z,10.9
2018-04-11T03:36:10.905Z,10.9
2018-04-11T03:37:00.689Z,10.9
2018-04-11T03:37:51.312Z,10.9
2018-04-11T03:38:41.092Z,10.9
2018-04-11T03:39:31.444Z,10.8
2018-04-11T03:40:20.971Z,10.8
2018-04-11T03:41:11.004Z,10.9
2018-04-11T03:42:01.340Z,11
2018-04-11T03:42:51.421Z,11.1
2018-04-11T03:43:41.473Z,11.2
2018-04-11T03:44:31.805Z,11.2
2018-04-11T03:45:21.612Z,11.2
2018-04-11T03:46:11.363Z,11.3
2018-04-11T03:47:01.449Z,11.4
2018-04-11T03:47:52.075Z,11.3
2018-04-11T03:48:41.890Z,11.2
2018-04-11T03:49:31.620Z,11.1
2018-04-11T03:50:21.664Z,11.1
2018-04-11T03:51:12.034Z,11
2018-04-11T03:52:01.821Z,11.1
2018-04-11T03:52:51.957Z,11
2018-04-11T03:53:41.937Z,11.1
2018-04-11T03:54:32.298Z,11.1
2018-04-11T03:55:22.059Z,11.1
2018-04-11T03:56:12.713Z,11.1
2018-04-11T03:57:02.196Z,11.1
2018-04-11T03:57:52.798Z,11.1
2018-04-11T03:58:42.314Z,11.1
2018-04-11T03:59:32.684Z,11.1
2018-04-11T04:00:23.014Z,11.1
2018-04-11T04:01:12.219Z,10.9
2018-04-11T04:02:02.876Z,10.8
2018-04-11T04:02:52.939Z,10.7
2018-04-11T04:03:43.254Z,10.8
2018-04-11T04:04:33.050Z,10.7
2018-04-11T04:05:23.387Z,10.7
2018-04-11T04:06:13.452Z,10.6
2018-04-11T04:07:03.227Z,10.6
2018-04-11T04:07:53.282Z,10.5
2018-04-11T04:08:43.343Z,10.5
2018-04-11T04:09:33.697Z,10.5
2018-04-11T04:10:23.768Z,10.5
2018-04-11T04:11:13.572Z,10.4
2018-04-11T04:12:03.617Z,10.6
2018-04-11T04:12:53.957Z,10.5
2018-04-11T04:13:44.158Z,10.5
2018-04-11T04:14:34.057Z,10.6
2018-04-11T04:15:23.835Z,10.6
2018-04-11T04:16:14.174Z,10.6
2018-04-11T04:17:03.984Z,10.5
2018-04-11T04:17:54.042Z,10.5
2018-04-11T04:18:44.382Z,10.5
2018-04-11T04:19:34.144Z,10.5
2018-04-11T04:20:24.207Z,10.5
2018-04-11T04:21:14.547Z,10.5
2018-04-11T04:22:04.350Z,10.5
2018-04-11T04:22:54.687Z,10.5
2018-04-11T04:23:44.442Z,10.6
2018-04-11T04:24:34.792Z,10.6
2018-04-11T04:25:24.298Z,10.6
2018-04-11T04:26:14.381Z,10.6
2018-04-11T04:27:04.984Z,10.6
2018-04-11T04:27:54.757Z,10.7
2018-04-11T04:28:44.824Z,10.7
2018-04-11T04:29:34.896Z,10.6
2018-04-11T04:30:25.379Z,10.6
2018-04-11T04:31:15.288Z,10.5
2018-04-11T04:32:05.387Z,10.5
2018-04-11T04:32:55.146Z,10.5
2018-04-11T04:33:45.508Z,10.6
2018-04-11T04:34:35.263Z,10.6
2018-04-11T04:35:25.326Z,10.4
2018-04-11T04:36:15.115Z,10.6
2018-04-11T04:37:05.471Z,10.6
2018-04-11T04:37:55.529Z,10.6
2018-04-11T04:38:45.306Z,10.6
2018-04-11T04:39:35.931Z,10.6
2018-04-11T04:40:25.707Z,10.7
2018-04-11T04:41:16.057Z,10.8
2018-04-11T04:42:06.160Z,10.8
2018-04-11T04:42:55.336Z,10.9
2018-04-11T04:43:45.966Z,10.9
2018-04-11T04:44:36.299Z,11
2018-04-11T04:45:26.360Z,10.9
2018-04-11T04:46:16.121Z,11
2018-04-11T04:47:06.224Z,11
2018-04-11T04:47:56.250Z,11.1
2018-04-11T04:48:46.640Z,11.1
2018-04-11T04:49:36.675Z,11.1
2018-04-11T04:50:26.488Z,11
2018-04-11T04:51:16.725Z,11.1
2018-04-11T04:52:06.889Z,11
2018-04-11T04:52:56.950Z,11.1
2018-04-11T04:53:46.695Z,11.1
2018-04-11T04:54:36.481Z,11.1
2018-04-11T04:55:27.107Z,11.1
2018-04-11T04:56:16.884Z,11.2
2018-04-11T04:57:07.240Z,11.3
2018-04-11T04:57:57.001Z,11.3
2018-04-11T04:58:47.373Z,11.4
2018-04-11T04:59:37.391Z,11.4
2018-04-11T05:00:26.641Z,11.5
2018-04-11T05:01:17.272Z,11.6
2018-04-11T05:02:07.122Z,11.6
2018-04-11T05:02:56.892Z,11.7
2018-04-11T05:03:47.176Z,11.8
2018-04-11T05:04:37.483Z,11.8
2018-04-11T05:05:27.289Z,11.8
2018-04-11T05:06:17.339Z,11.8
2018-04-11T05:07:07.979Z,11.8
2018-04-11T05:07:57.526Z,11.9
2018-04-11T05:08:47.524Z,11.9
2018-04-11T05:09:38.174Z,11.9
2018-04-11T05:10:27.651Z,11.9
2018-04-11T05:11:18.005Z,12
2018-04-11T05:12:08.080Z,12
2018-04-11T05:12:58.116Z,12.1
2018-04-11T05:13:48.204Z,12
2018-04-11T05:14:38.528Z,11.9
2018-04-11T05:15:28.609Z,11.8
2018-04-11T05:16:18.650Z,11.8
2018-04-11T05:17:08.725Z,11.8
2018-04-11T05:17:58.488Z,11.7
2018-04-11T05:18:48.275Z,11.7
2018-04-11T05:19:38.892Z,11.7
2018-04-11T05:20:28.956Z,11.7
2018-04-11T05:21:18.743Z,11.7
2018-04-11T05:22:09.088Z,11.8
2018-04-11T05:22:58.896Z,11.8
2018-04-11T05:23:49.195Z,11.8
2018-04-11T05:24:38.990Z,11.8
2018-04-11T05:25:29.343Z,11.8
2018-04-11T05:26:19.391Z,11.8
2018-04-11T05:27:09.483Z,11.9
2018-04-11T05:27:59.503Z,12
2018-04-11T05:28:49.020Z,12
2018-04-11T05:29:39.341Z,12.1
2018-04-11T05:30:29.730Z,12.1
2018-04-11T05:31:19.820Z,12.1
2018-04-11T05:32:09.844Z,12
2018-04-11T05:32:59.634Z,12
2018-04-11T05:34:15.980Z,12.1
2018-04-11T05:35:06.375Z,12.1
2018-04-11T05:35:56.405Z,12.3
2018-04-11T05:36:46.462Z,12.4
2018-04-11T05:37:36.228Z,12.4
2018-04-11T05:38:26.615Z,12.6
2018-04-11T05:39:16.664Z,12.6
2018-04-11T05:40:06.579Z,12.6
2018-04-11T05:40:56.784Z,12.6
2018-04-11T05:41:46.261Z,12.6
2018-04-11T05:42:36.900Z,12.7
2018-04-11T05:43:26.692Z,12.7
2018-04-11T05:44:16.435Z,12.7
2018-04-11T05:45:07.098Z,12.8
2018-04-11T05:45:56.857Z,12.8
2018-04-11T05:46:46.907Z,12.8
2018-04-11T05:47:36.967Z,12.8
2018-04-11T05:48:27.022Z,12.9
2018-04-11T05:49:16.332Z,12.9
2018-04-11T05:50:06.902Z,12.9
2018-04-11T05:50:56.649Z,12.9
2018-04-11T05:51:47.299Z,12.9
2018-04-11T05:52:37.073Z,13
2018-04-11T05:53:27.004Z,13.1
2018-04-11T05:54:17.182Z,13.1
2018-04-11T05:55:07.374Z,13.1
2018-04-11T05:55:57.335Z,13.1
2018-04-11T05:56:47.086Z,13.2
2018-04-11T05:57:37.448Z,13.3
2018-04-11T05:58:27.785Z,13.4
2018-04-11T05:59:17.853Z,13.5
2018-04-11T06:00:07.613Z,13.7
2018-04-11T06:00:58.301Z,13.7
2018-04-11T06:01:47.757Z,13.8
2018-04-11T06:02:38.088Z,13.9
2018-04-11T06:03:28.164Z,14
2018-04-11T06:04:17.446Z,14
2018-04-11T06:05:08.077Z,13.9
2018-04-11T06:05:58.785Z,14
2018-04-11T06:06:48.395Z,14
2018-04-11T06:07:38.773Z,14.2
2018-04-11T06:08:28.385Z,14.4
2018-04-11T06:09:18.599Z,14.5
2018-04-11T06:10:08.926Z,14.8
2018-04-11T06:10:58.712Z,14.7
2018-04-11T06:11:48.897Z,14.6
2018-04-11T06:12:39.111Z,14.7
2018-04-11T06:13:28.904Z,14.7
2018-04-11T06:14:18.809Z,14.6
2018-04-11T06:15:09.327Z,14.7
2018-04-11T06:15:59.090Z,14.8
2018-04-11T06:16:49.477Z,14.6
2018-04-11T06:17:39.485Z,14.7
2018-04-11T06:18:29.564Z,14.8
2018-04-11T06:19:19.609Z,14.8
2018-04-11T06:20:09.126Z,14.8
2018-04-11T06:20:59.445Z,14.9
2018-04-11T06:21:49.551Z,14.9
2018-04-11T06:22:39.902Z,14.9
2018-04-11T06:23:29.898Z,14.9
2018-04-11T06:24:19.701Z,14.9
2018-04-11T06:25:09.772Z,15.1
2018-04-11T06:25:59.838Z,15.1
2018-04-11T06:26:49.886Z,14.9
2018-04-11T06:27:40.273Z,14.8
2018-04-11T06:28:30.010Z,14.7
2018-04-11T06:29:19.776Z,14.9
2018-04-11T06:30:10.415Z,15
2018-04-11T06:31:00.475Z,15.1
2018-04-11T06:31:50.570Z,15.3
2018-04-11T06:32:40.340Z,15.3
2018-04-11T06:33:30.693Z,15.4
2018-04-11T06:34:20.580Z,15.3
2018-04-11T06:35:11.038Z,15.4
2018-04-11T06:36:00.873Z,15.3
2018-04-11T06:36:50.663Z,15.1
2018-04-11T06:37:40.696Z,15.2
2018-04-11T06:38:31.072Z,15.1
2018-04-11T06:39:21.135Z,15.3
2018-04-11T06:40:11.176Z,15.4
2018-04-11T06:41:01.267Z,15.6
2018-04-11T06:41:51.038Z,15.7
2018-04-11T06:42:41.364Z,15.8
2018-04-11T06:43:30.882Z,16.1
2018-04-11T06:44:21.210Z,16.1
2018-04-11T06:45:11.619Z,16.1
2018-04-11T06:46:01.608Z,16.1
2018-04-11T06:46:51.710Z,15.9
2018-04-11T06:47:41.462Z,15.8
2018-04-11T06:48:31.547Z,15.8
2018-04-11T06:49:21.592Z,15.8
2018-04-11T06:50:11.934Z,16.1
2018-04-11T06:51:01.695Z,16.1
2018-04-11T06:51:51.795Z,16.3
2018-04-11T06:52:42.124Z,16.4
2018-04-11T06:53:31.622Z,16.3
2018-04-11T06:54:21.962Z,16
2018-04-11T06:55:12.077Z,15.9
2018-04-11T06:56:01.810Z,15.9
2018-04-11T06:56:52.229Z,15.8
2018-04-11T06:57:42.516Z,15.8
2018-04-11T06:58:32.268Z,15.6
2018-04-11T06:59:22.324Z,15.6
2018-04-11T07:00:12.673Z,15.7
2018-04-11T07:01:02.751Z,15.8
2018-04-11T07:01:52.221Z,16.3
2018-04-11T07:02:42.906Z,16.2
2018-04-11T07:03:32.643Z,15.8
2018-04-11T07:04:22.975Z,15.6
2018-04-11T07:05:13.038Z,15.6
2018-04-11T07:06:02.856Z,15.6
2018-04-11T07:06:53.163Z,15.8
2018-04-11T07:07:43.233Z,15.8
2018-04-11T07:08:33.043Z,15.9
2018-04-11T07:09:23.372Z,16
2018-04-11T07:10:13.420Z,16.3
2018-04-11T07:11:03.213Z,16.6
2018-04-11T07:11:53.544Z,16.8
2018-04-11T07:13:33.690Z,17.2
2018-04-11T07:14:23.748Z,17.1
2018-04-11T07:15:13.855Z,16.8
2018-04-11T07:16:03.885Z,16.8
2018-04-11T07:16:53.945Z,17.1
2018-04-11T07:17:43.735Z,17.1
2018-04-11T07:19:24.107Z,17.2
2018-04-11T07:20:13.899Z,17.1
2018-04-11T07:21:54.296Z,17.1
2018-04-11T07:22:44.396Z,17.1
2018-04-11T07:23:34.441Z,16.7
2018-04-11T07:24:24.501Z,16.6
2018-04-11T07:25:14.565Z,16.7
2018-04-11T07:26:54.704Z,17.4
2018-04-11T07:27:44.496Z,17.6
2018-04-11T07:28:34.834Z,17.9
2018-04-11T07:29:24.596Z,18
2018-04-11T07:30:14.644Z,18.3
2018-04-11T07:31:05.002Z,18.3
2018-04-11T07:31:55.111Z,18.4
2018-04-11T07:32:44.846Z,18.4
2018-04-11T07:33:35.221Z,18.3
2018-04-11T07:34:24.971Z,18.1
2018-04-11T07:35:15.051Z,18.1
2018-04-11T07:36:05.385Z,18.1
2018-04-11T07:36:55.488Z,18.2
2018-04-11T07:37:45.231Z,18.5
2018-04-11T07:38:35.016Z,18.8
2018-04-11T07:39:25.357Z,18.9
2018-04-11T07:40:15.526Z,19.1
2018-04-11T07:41:05.748Z,19.2
2018-04-11T07:41:55.833Z,19.4
2018-04-11T07:42:45.606Z,19.4
2018-04-11T07:43:35.650Z,19.4
2018-04-11T07:44:25.715Z,18.9
2018-04-11T07:45:15.791Z,18.8
2018-04-11T07:46:06.332Z,18.8
2018-04-11T07:46:55.901Z,18.8
2018-04-11T07:47:46.263Z,18.4
2018-04-11T07:48:36.317Z,18.8
2018-04-11T07:49:26.387Z,18.9
2018-04-11T07:50:16.176Z,18.9
2018-04-11T07:51:05.962Z,18.8
2018-04-11T07:51:56.001Z,18.3
2018-04-11T07:52:46.628Z,18.4
2018-04-11T07:53:36.731Z,18.3
2018-04-11T07:55:16.533Z,18.9
2018-04-11T07:56:06.343Z,19.3
2018-04-11T07:56:56.675Z,19.4
2018-04-11T07:57:46.750Z,19.2
2018-04-11T07:58:36.786Z,19.5
2018-04-11T07:59:27.172Z,19.6
2018-04-11T08:00:16.937Z,19.5
2018-04-11T08:01:06.429Z,19.3
2018-04-11T08:01:57.332Z,19.6
2018-04-11T08:02:47.134Z,19.7
2018-04-11T08:03:37.495Z,19.8
2018-04-11T08:04:27.234Z,19.9
2018-04-11T08:05:17.020Z,19.4
2018-04-11T08:06:07.639Z,19.4
2018-04-11T08:06:57.419Z,19.6
2018-04-11T08:07:47.854Z,19.8
2018-04-11T08:08:37.852Z,19.4
2018-04-11T08:09:27.910Z,19.3
2018-04-11T08:10:17.956Z,19.3
2018-04-11T08:11:08.034Z,19.6
2018-04-11T08:11:58.114Z,19.4
2018-04-11T08:12:48.144Z,19.4
2018-04-11T08:13:37.939Z,19.8
2018-04-11T08:14:28.031Z,19.8
2018-04-11T08:15:18.166Z,20.1
2018-04-11T08:16:08.429Z,19.7
2018-04-11T08:16:58.533Z,19.4
2018-04-11T08:17:48.270Z,19.2
2018-04-11T08:18:38.045Z,19.5
2018-04-11T08:19:28.673Z,19.9
2018-04-11T08:20:18.711Z,19.8
2018-04-11T08:21:08.826Z,19.6
2018-04-11T08:21:58.093Z,20
2018-04-11T08:22:48.657Z,20.3
2018-04-11T08:23:38.461Z,20.6
2018-04-11T08:24:28.760Z,20.6
2018-04-11T08:25:18.843Z,20.6
2018-04-11T08:26:08.900Z,20.8
2018-04-11T08:26:58.967Z,21.1
2018-04-11T08:27:48.766Z,21.2
2018-04-11T08:28:39.078Z,21.6
2018-04-11T08:29:29.148Z,21.8
2018-04-11T08:30:19.232Z,21.8
2018-04-11T08:31:09.253Z,21.8
2018-04-11T08:31:59.627Z,21.8
2018-04-11T08:32:49.667Z,21.9
2018-04-11T08:33:39.729Z,21.7
2018-04-11T08:34:29.035Z,21.7
2018-04-11T08:35:19.605Z,21.8
2018-04-11T08:36:09.932Z,21.9
2018-04-11T08:36:59.702Z,21.4
2018-04-11T08:37:50.095Z,21.1
2018-04-11T08:38:40.133Z,20.9
2018-04-11T08:39:30.180Z,20.9
2018-04-11T08:40:20.248Z,20.9
2018-04-11T08:41:10.330Z,21.1
2018-04-11T08:42:00.391Z,21.2
2018-04-11T08:42:50.158Z,21.9
2018-04-11T08:43:40.254Z,21.9
2018-04-11T08:44:30.560Z,22.3
2018-04-11T08:46:10.692Z,20.8
2018-04-11T08:47:00.757Z,20.9
2018-04-11T08:47:50.569Z,21.3
2018-04-11T08:48:40.919Z,21.4
2018-04-11T08:49:30.664Z,21.4
2018-04-11T08:50:20.994Z,21.4
2018-04-11T08:51:10.811Z,21.7
2018-04-11T08:52:00.596Z,22
2018-04-11T08:52:51.184Z,21.9
2018-04-11T08:53:40.965Z,22.1
2018-04-11T08:54:31.349Z,22.1
2018-04-11T08:55:21.129Z,21.8
2018-04-11T08:56:10.897Z,21.4
2018-04-11T08:57:01.232Z,21.8
2018-04-11T08:57:51.570Z,21.8
2018-04-11T08:58:41.646Z,21.9
2018-04-11T08:59:31.158Z,21.8
2018-04-11T09:00:21.499Z,21.6
2018-04-11T09:01:11.845Z,22.3
2018-04-11T09:02:01.661Z,22.3
2018-04-11T09:02:51.715Z,22.9
2018-04-11T09:03:42.050Z,23.2
2018-04-11T09:04:31.821Z,23.5
2018-04-11T09:05:21.998Z,23.8
2018-04-11T09:06:11.945Z,23.8
2018-04-11T09:07:02.299Z,24.1
2018-04-11T09:07:52.353Z,24.3
2018-04-11T09:08:42.425Z,24.6
2018-04-11T09:09:32.180Z,24.8
2018-04-11T09:10:22.552Z,25.1
2018-04-11T09:11:12.301Z,24.9
2018-04-11T09:12:02.661Z,24.4
2018-04-11T09:12:52.473Z,24.1
2018-04-11T09:13:42.786Z,24.4
2018-04-11T09:14:32.842Z,23.7
2018-04-11T09:15:22.941Z,23.5
2018-04-11T09:16:13.017Z,23.7
2018-04-11T09:17:03.073Z,24.1
2018-04-11T09:17:52.850Z,24.2
2018-04-11T09:18:42.895Z,24.4
2018-04-11T09:19:33.414Z,24.6
2018-04-11T09:20:23.045Z,24.4
2018-04-11T09:21:13.453Z,24.4
2018-04-11T09:22:03.151Z,24.4
2018-04-11T09:22:53.515Z,24.6
2018-04-11T09:23:43.300Z,24.8
2018-04-11T09:24:33.386Z,24.6
2018-04-11T09:25:23.694Z,24.5
2018-04-11T09:26:14.047Z,23.8
2018-04-11T09:27:03.842Z,23.8
2018-04-11T09:27:53.872Z,24
2018-04-11T09:28:43.649Z,24
2018-04-11T09:29:33.722Z,24.1
2018-04-11T09:30:24.102Z,23.9
2018-04-11T09:31:13.849Z,23.9
2018-04-11T09:32:04.243Z,24.2
2018-04-11T09:32:54.266Z,24.2
2018-04-11T09:33:44.309Z,23.6
2018-04-11T09:34:34.403Z,23.6
2018-04-11T09:35:24.443Z,23.6
2018-04-11T09:36:14.279Z,23.6
2018-04-11T09:37:04.313Z,23.6
2018-04-11T09:37:54.116Z,23.8
2018-04-11T09:38:44.607Z,23.6
2018-04-11T09:39:34.202Z,23.5
2018-04-11T09:40:24.604Z,23.7
2018-04-11T09:41:14.602Z,23.6
2018-04-11T09:42:04.964Z,23.6
2018-04-11T09:42:55.042Z,23.9
2018-04-11T09:43:44.810Z,24.1
2018-04-11T09:44:34.876Z,23.3
2018-04-11T09:45:24.677Z,23.2
2018-04-11T09:46:15.301Z,23.6
2018-04-11T09:47:04.789Z,23.9
2018-04-11T09:47:55.142Z,24.3
2018-04-11T09:48:44.984Z,24.6
2018-04-11T09:49:35.546Z,24.6
2018-04-11T09:50:25.641Z,23.8
2018-04-11T09:51:14.641Z,23.6
2018-04-11T09:52:05.734Z,23.9
2018-04-11T09:52:55.786Z,23.3
2018-04-11T09:53:45.586Z,23.3
2018-04-11T09:54:35.635Z,23.6
2018-04-11T09:55:25.989Z,24
2018-04-11T09:56:16.048Z,24.6
2018-04-11T09:57:05.859Z,24.4
2018-04-11T09:57:55.898Z,24.3
2018-04-11T09:58:46.257Z,24.3
2018-04-11T09:59:36.038Z,23.6
2018-04-11T10:00:26.419Z,23.4
2018-04-11T10:01:16.186Z,23.9
2018-04-11T10:02:05.990Z,23.6
2018-04-11T10:02:56.571Z,24.2
2018-04-11T10:03:46.080Z,24.6
2018-04-11T10:04:36.425Z,24.5
2018-04-11T10:05:26.505Z,24.7
2018-04-11T10:06:16.865Z,24.6
2018-04-11T10:07:06.903Z,23.9
2018-04-11T10:07:56.955Z,24.3
2018-04-11T10:08:46.748Z,24.3
2018-04-11T10:09:36.518Z,24.4
2018-04-11T10:10:26.387Z,24.8
2018-04-11T10:11:17.202Z,24.6
2018-04-11T10:12:06.884Z,24.5
2018-04-11T10:12:57.351Z,24.7
2018-04-11T10:13:46.851Z,24.4
2018-04-11T10:14:36.976Z,24.4
2018-04-11T10:15:27.240Z,24.5
2018-04-11T10:16:17.666Z,24.6
2018-04-11T10:17:07.091Z,25
2018-04-11T10:17:57.431Z,25.4
2018-04-11T10:18:47.776Z,25.3
2018-04-11T10:19:37.916Z,25.1
2018-04-11T10:20:27.070Z,25.1
2018-04-11T10:21:17.696Z,25.3
2018-04-11T10:22:07.266Z,25.5
2018-04-11T10:22:58.123Z,25.5
2018-04-11T10:23:47.692Z,25.5
2018-04-11T10:24:37.976Z,25.1
2018-04-11T10:25:27.842Z,25.1
2018-04-11T10:26:17.533Z,25.1
2018-04-11T10:27:08.445Z,25.1
2018-04-11T10:27:58.097Z,25.3
2018-04-11T10:28:48.293Z,25.4
2018-04-11T10:29:38.651Z,25.8
2018-04-11T10:30:28.688Z,26.3
2018-04-11T10:31:18.195Z,26.3
2018-04-11T10:32:08.572Z,26.4
2018-04-11T10:32:58.900Z,26.5
2018-04-11T10:33:48.940Z,26.7
2018-04-11T10:34:38.717Z,26.4
2018-04-11T10:35:28.810Z,26.6
2018-04-11T10:36:19.152Z,26.9
2018-04-11T10:37:09.200Z,26.9
2018-04-11T10:37:59.285Z,27.1
2018-04-11T10:38:49.353Z,26.9
2018-04-11T10:39:39.124Z,26.8
2018-04-11T10:40:29.477Z,27
2018-04-11T10:41:18.374Z,26.9
2018-04-11T10:42:09.594Z,27.4
2018-04-11T10:42:59.369Z,27.4
2018-04-11T10:43:49.419Z,27.6
2018-04-11T10:44:39.497Z,27.6
2018-04-11T10:45:29.837Z,27.4
2018-04-11T10:46:19.609Z,27.1
2018-04-11T10:47:09.684Z,26.8
2018-04-11T10:48:00.057Z,27
2018-04-11T10:48:50.077Z,27.1
2018-04-11T10:49:39.891Z,27.2
2018-04-11T10:50:29.951Z,26.9
2018-04-11T10:51:20.295Z,26.4
2018-04-11T10:52:10.094Z,26.5
2018-04-11T10:52:59.564Z,27.4
2018-04-11T10:53:49.968Z,27.9
2018-04-11T10:54:40.543Z,28.4
2018-04-11T10:55:30.630Z,28.7
2018-04-11T10:56:20.674Z,28.8
2018-04-11T10:57:10.726Z,28
2018-04-11T10:58:00.259Z,27.9
2018-04-11T10:58:50.876Z,28.2
2018-04-11T10:59:40.657Z,28.6
2018-04-11T11:00:30.714Z,28.4
2018-04-11T11:01:20.213Z,28.5
2018-04-11T11:02:10.860Z,28.1
2018-04-11T11:03:01.194Z,28.3
2018-04-11T11:03:50.963Z,28.5
2018-04-11T11:04:41.114Z,28.6
2018-04-11T11:05:31.111Z,28.3
2018-04-11T11:06:20.868Z,28.3
2018-04-11T11:07:11.229Z,28.3
2018-04-11T11:08:01.563Z,27.9
2018-04-11T11:08:51.353Z,28.2
2018-04-11T11:09:41.864Z,28.4
2018-04-11T11:10:31.214Z,28.1
2018-04-11T11:11:21.255Z,27.4
2018-04-11T11:12:11.339Z,26.6
2018-04-11T11:13:02.010Z,26.5
2018-04-11T11:13:51.765Z,26.8